Time;durP1;ratioP1;P1;durP2;ratioP2;P2;SDS_P1;SDS_P2;PMS_P1;PMS_P2;Temp;Humidity;BMP_temperature;BMP_pressure;BME280_temperature;BME280_humidity;BME280_pressure;Samples;Min_cycle;Max_cycle;Signal;HPM_P1;HPM_P2
2023/01/27 00:00:50;;;;;;;;;12.67;8.33;;;;;-0.55;91.58;98594.69;4964912;28;103776;-70
2023/01/27 00:03:17;;;;;;;;;14.00;11.00;;;;;-0.55;90.68;98584.06;4937238;28;102908;-70
2023/01/27 00:05:45;;;;;;;;;21.33;15.33;;;;;-0.53;91.66;98584.75;4948648;28;102328;-70
2023/01/27 00:08:14;;;;;;;;;15.33;11.67;;;;;-0.55;89.89;98590.22;4941152;28;102388;-70
2023/01/27 00:10:41;;;;;;;;;15.00;13.00;;;;;-0.54;90.46;98593.72;4965909;28;104171;-70
2023/01/27 00:13:30;;;;;;;;;19.00;16.00;;;;;-0.56;90.28;98601.78;4965454;28;102656;-68
2023/01/27 00:15:58;;;;;;;;;19.00;18.00;;;;;-0.59;90.35;98594.09;4956445;28;102271;-68
2023/01/27 00:18:25;;;;;;;;;20.33;15.67;;;;;-0.57;90.61;98593.94;4962364;28;102193;-70
2023/01/27 00:26:22;;;;;;;;;46.33;40.33;;;;;-0.76;91.85;98596.47;4954865;28;102466;-69
2023/01/27 00:28:49;;;;;;;;;34.67;29.33;;;;;-0.76;92.67;98594.69;4958533;28;102044;-68
2023/01/27 00:34:09;;;;;;;;;17.33;16.00;;;;;-0.72;92.34;98596.09;4953760;28;102710;-68
2023/01/27 00:36:38;;;;;;;;;23.67;19.00;;;;;-0.65;91.08;98596.44;4969708;28;102371;-69
2023/01/27 00:39:06;;;;;;;;;20.67;12.00;;;;;-0.62;91.81;98601.47;4959482;28;104394;-69
2023/01/27 00:41:34;;;;;;;;;16.00;11.67;;;;;-0.86;91.47;98556.63;4965779;28;103961;-69
2023/01/27 00:44:03;;;;;;;;;16.67;14.00;;;;;-0.74;91.16;98583.94;4961655;28;102084;-69
2023/01/27 00:46:30;;;;;;;;;15.33;14.33;;;;;-0.56;91.08;98606.25;4953152;28;102037;-69
2023/01/27 00:48:57;;;;;;;;;19.00;14.33;;;;;-0.62;90.42;98596.16;4955227;28;102668;-69
2023/01/27 00:51:24;;;;;;;;;14.33;14.00;;;;;-0.58;90.74;98590.44;4956209;28;104061;-69
2023/01/27 00:53:51;;;;;;;;;9.67;7.67;;;;;-0.54;91.50;98614.94;4967879;28;102026;-69
2023/01/27 00:56:18;;;;;;;;;12.00;9.00;;;;;-0.71;90.90;98579.19;4958821;28;103263;-69
2023/01/27 00:58:45;;;;;;;;;15.00;13.00;;;;;-0.56;90.51;98595.63;4954383;28;102416;-69
2023/01/27 01:01:16;;;;;;;;;11.00;8.67;;;;;-0.57;91.50;98607.22;4961365;28;104243;-69
2023/01/27 01:03:43;;;;;;;;;12.67;12.00;;;;;-0.58;90.72;98589.59;4968597;28;102988;-69
2023/01/27 01:06:13;;;;;;;;;25.67;17.33;;;;;-0.62;91.57;98594.34;4959823;28;102091;-69
2023/01/27 01:08:41;;;;;;;;;33.33;30.00;;;;;-0.69;92.24;98590.53;4968002;28;101985;-68
2023/01/27 01:11:12;;;;;;;;;39.67;33.00;;;;;-0.73;91.91;98591.78;4967121;28;104033;-68
2023/01/27 01:13:41;;;;;;;;;37.00;30.33;;;;;-0.77;92.96;98586.88;4964222;28;102710;-68
2023/01/27 01:16:11;;;;;;;;;34.67;22.67;;;;;-0.76;92.32;98589.38;4963638;28;102106;-68
2023/01/27 01:18:38;;;;;;;;;28.00;22.67;;;;;-0.77;92.80;98586.88;4947265;28;102308;-69
2023/01/27 01:21:05;;;;;;;;;25.00;19.33;;;;;-0.75;93.48;98590.22;4949415;28;103995;-69
2023/01/27 01:23:36;;;;;;;;;16.67;11.67;;;;;-0.76;92.90;98588.53;4945365;28;102456;-69
2023/01/27 01:26:03;;;;;;;;;37.00;24.67;;;;;-0.78;93.53;98593.13;4955820;28;101940;-70
2023/01/27 01:28:30;;;;;;;;;27.00;23.33;;;;;-0.81;93.49;98586.25;4967124;28;103819;-70
2023/01/27 01:31:09;;;;;;;;;22.33;20.33;;;;;-0.80;93.86;98587.09;4963036;28;104038;-70
2023/01/27 01:33:36;;;;;;;;;25.67;19.00;;;;;-0.85;93.37;98576.03;4947759;28;102538;-70
2023/01/27 01:36:08;;;;;;;;;28.00;18.67;;;;;-0.83;93.68;98582.06;4960968;28;101994;-70
2023/01/27 01:38:35;;;;;;;;;33.00;23.67;;;;;-0.76;92.28;98585.88;4950546;28;104476;-70
2023/01/27 01:41:04;;;;;;;;;22.33;16.67;;;;;-0.77;93.01;98587.72;4965211;28;103986;-70
2023/01/27 01:43:31;;;;;;;;;22.00;14.33;;;;;-0.79;93.20;98581.69;4963655;28;102724;-69
2023/01/27 01:46:00;;;;;;;;;14.00;11.33;;;;;-0.77;92.34;98589.50;4965170;28;102217;-70
2023/01/27 01:48:53;;;;;;;;;19.00;11.33;;;;;-0.80;92.03;98587.09;4968252;28;102205;-70
2023/01/27 01:51:29;;;;;;;;;19.00;14.00;;;;;-0.91;91.66;98565.00;4945679;28;108886;-70
2023/01/27 01:54:06;;;;;;;;;15.00;13.00;;;;;-0.81;92.00;98588.09;4948192;28;102428;-70
2023/01/27 01:56:38;;;;;;;;;12.00;9.67;;;;;-0.82;92.38;98591.72;4964238;28;102531;-69
2023/01/27 01:59:11;;;;;;;;;15.00;9.00;;;;;-0.82;92.42;98587.25;4968997;28;109138;-70
2023/01/27 02:01:38;;;;;;;;;12.33;12.33;;;;;-0.85;91.44;98584.00;4953455;28;104008;-69
2023/01/27 02:04:11;;;;;;;;;18.00;14.67;;;;;-1.10;92.55;98550.75;4957116;28;102390;-70
2023/01/27 02:06:44;;;;;;;;;20.00;12.67;;;;;-1.04;91.59;98560.84;4955468;27;102118;-69
2023/01/27 02:09:43;;;;;;;;;19.67;18.33;;;;;-0.91;92.89;98586.22;4961704;28;102428;-69
2023/01/27 02:12:29;;;;;;;;;17.33;12.67;;;;;-0.91;92.97;98583.56;4947964;28;108055;-69
2023/01/27 02:15:20;;;;;;;;;20.33;15.33;;;;;-0.90;93.27;98585.22;4961003;28;102931;-69
2023/01/27 02:18:09;;;;;;;;;17.67;15.33;;;;;-0.91;93.52;98580.06;4963373;28;102052;-70
2023/01/27 02:21:00;;;;;;;;;17.67;13.67;;;;;-0.90;94.13;98584.38;4948640;28;103741;-70
2023/01/27 02:23:55;;;;;;;;;17.67;14.00;;;;;-0.90;93.05;98587.03;4955550;28;107417;-70
2023/01/27 02:26:37;;;;;;;;;24.33;20.67;;;;;-1.07;93.14;98556.63;4964575;28;102400;-70
2023/01/27 02:29:07;;;;;;;;;32.00;20.33;;;;;-0.94;93.75;98583.81;4957889;28;102353;-68
2023/01/27 02:31:34;;;;;;;;;21.33;15.00;;;;;-0.96;93.01;98582.28;4973131;28;103234;-68
2023/01/27 02:34:12;;;;;;;;;21.33;17.33;;;;;-1.15;93.90;98545.81;4969947;28;104251;-68
2023/01/27 02:36:47;;;;;;;;;20.67;17.00;;;;;-0.93;93.22;98574.88;4951296;28;102601;-70
2023/01/27 02:39:17;;;;;;;;;18.33;12.00;;;;;-0.91;92.90;98580.91;4958766;28;102415;-70
2023/01/27 02:41:51;;;;;;;;;22.00;16.00;;;;;-0.92;92.71;98579.22;4956428;28;102469;-70
2023/01/27 02:44:18;;;;;;;;;15.33;12.00;;;;;-0.93;92.50;98580.19;4960234;28;104206;-68
2023/01/27 02:46:45;;;;;;;;;11.00;9.67;;;;;-0.91;92.50;98590.69;4954414;28;102278;-69
2023/01/27 02:49:13;;;;;;;;;15.00;12.67;;;;;-0.96;92.68;98577.81;4945365;28;102889;-69
2023/01/27 02:51:40;;;;;;;;;17.33;11.67;;;;;-0.89;93.06;98588.72;4952941;28;102381;-68
2023/01/27 02:54:07;;;;;;;;;28.33;20.00;;;;;-0.93;92.42;98587.31;4953424;28;103688;-68
2023/01/27 02:56:34;;;;;;;;;30.33;21.00;;;;;-1.00;93.08;98589.66;4947319;28;102619;-68
2023/01/27 02:59:01;;;;;;;;;41.67;29.33;;;;;-1.01;92.32;98573.84;4962710;28;103983;-70
2023/01/27 03:01:31;;;;;;;;;35.00;28.33;;;;;-1.06;94.05;98591.97;4970154;28;102420;-70
2023/01/27 03:03:59;;;;;;;;;22.00;19.67;;;;;-1.08;92.97;98585.97;4968457;28;103993;-70
2023/01/27 03:06:26;;;;;;;;;44.00;36.00;;;;;-1.17;93.85;98578.78;4955714;28;102483;-69
2023/01/27 03:08:53;;;;;;;;;48.00;36.33;;;;;-1.14;93.46;98584.66;4969885;28;102499;-69
2023/01/27 03:12:21;;;;;;;;;40.33;36.67;;;;;-1.19;93.09;98586.84;4973815;28;102343;-68
2023/01/27 03:14:16;;;;;;;;;38.00;29.00;;;;;-1.18;93.98;98577.94;4951771;28;108633;-68
2023/01/27 03:19:28;;;;;;;;;45.00;32.33;;;;;-1.23;94.17;98588.06;4955004;28;102048;-69
2023/01/27 03:21:55;;;;;;;;;39.33;33.33;;;;;-1.20;93.84;98587.81;4955968;28;102050;-69
2023/01/27 03:24:22;;;;;;;;;32.67;25.67;;;;;-1.20;94.95;98595.78;4967856;28;104289;-69
2023/01/27 03:26:49;;;;;;;;;24.67;17.67;;;;;-1.15;94.07;98598.03;4958942;28;102094;-69
2023/01/27 03:32:02;;;;;;;;;28.00;18.67;;;;;-1.08;94.12;98600.03;4952898;28;102645;-69
2023/01/27 03:34:29;;;;;;;;;23.00;19.67;;;;;-1.04;92.55;98596.19;4967236;28;104010;-69
2023/01/27 03:47:59;;;;;;;;;14.33;11.67;;;;;-1.04;93.60;98587.38;4965867;28;102533;-70
2023/01/27 03:50:36;;;;;;;;;31.00;28.00;;;;;-1.09;92.81;98587.78;4950006;28;102508;-69
2023/01/27 03:53:04;;;;;;;;;26.67;22.67;;;;;-1.06;93.54;98590.16;4962701;28;102217;-70
2023/01/27 03:55:34;;;;;;;;;24.67;20.00;;;;;-1.06;92.21;98587.50;4963797;28;104196;-69
2023/01/27 03:58:17;;;;;;;;;25.67;21.67;;;;;-1.04;92.42;98574.97;4951240;28;102481;-70
2023/01/27 04:00:58;;;;;;;;;18.33;16.33;;;;;-1.01;92.64;98590.63;4945109;28;101982;-69
2023/01/27 04:09:16;;;;;;;;;23.00;19.67;;;;;-1.10;93.35;98577.28;4949858;28;102818;-69
2023/01/27 04:11:57;;;;;;;;;22.33;16.67;;;;;-1.02;94.11;98588.09;4967126;28;102184;-69
2023/01/27 04:14:34;;;;;;;;;23.33;18.33;;;;;-1.02;92.39;98577.47;4964176;28;102317;-69
2023/01/27 04:17:06;;;;;;;;;12.67;11.33;;;;;-1.21;92.41;98538.38;4962486;28;108488;-69
2023/01/27 04:19:33;;;;;;;;;12.00;11.67;;;;;-0.98;92.09;98579.72;4965010;28;102239;-69
2023/01/27 04:22:00;;;;;;;;;9.67;8.00;;;;;-0.98;91.99;98578.88;4965711;28;101859;-69
2023/01/27 04:24:28;;;;;;;;;10.33;7.00;;;;;-0.98;92.40;98578.88;4959581;28;102364;-70
2023/01/27 04:26:56;;;;;;;;;5.00;4.00;;;;;-1.00;91.23;98576.38;4972063;28;104017;-69
2023/01/27 04:29:26;;;;;;;;;7.00;5.00;;;;;-1.02;91.47;98572.16;4967909;28;102104;-69
2023/01/27 04:31:54;;;;;;;;;4.67;4.00;;;;;-1.08;90.44;98570.03;4967883;28;103254;-69
2023/01/27 04:34:21;;;;;;;;;11.33;8.67;;;;;-1.10;90.71;98577.28;4982229;28;102499;-69
2023/01/27 04:36:49;;;;;;;;;7.67;6.33;;;;;-1.14;91.38;98584.66;4963779;28;103930;-69
2023/01/27 04:39:17;;;;;;;;;24.33;12.00;;;;;-1.18;90.22;98577.09;4941971;28;102380;-69
2023/01/27 04:41:44;;;;;;;;;10.33;8.00;;;;;-1.26;90.07;98590.97;4962219;28;102340;-69
2023/01/27 04:44:11;;;;;;;;;5.00;5.00;;;;;-1.30;90.35;98589.53;4967773;28;102091;-69
2023/01/27 04:46:39;;;;;;;;;11.00;8.00;;;;;-1.41;91.30;98586.94;4966549;28;103960;-69
2023/01/27 04:49:06;;;;;;;;;17.00;14.33;;;;;-1.46;91.75;98587.31;4962985;28;102167;-69
2023/01/27 04:51:33;;;;;;;;;19.67;12.00;;;;;-1.51;93.08;98591.31;4968775;28;102488;-69
2023/01/27 04:54:02;;;;;;;;;14.00;12.67;;;;;-1.55;92.27;98590.72;4958730;28;102501;-69
2023/01/27 04:56:33;;;;;;;;;36.33;23.00;;;;;-1.60;90.98;98586.75;4967860;28;103955;-69
2023/01/27 04:59:02;;;;;;;;;31.67;21.00;;;;;-1.57;91.62;98591.81;4957900;28;103263;-69
2023/01/27 05:01:29;;;;;;;;;31.00;25.67;;;;;-1.62;90.36;98588.72;4960044;28;102023;-69
2023/01/27 05:03:57;;;;;;;;;21.00;18.33;;;;;-1.62;89.97;98588.72;4958518;28;102329;-69
2023/01/27 05:06:24;;;;;;;;;23.67;18.67;;;;;-1.63;89.97;98589.69;4967410;28;108529;-69
2023/01/27 05:08:52;;;;;;;;;27.67;18.00;;;;;-1.60;89.91;98613.28;4943303;28;102186;-68
2023/01/27 05:11:19;;;;;;;;;17.67;13.67;;;;;-1.60;90.82;98605.31;4958069;28;102171;-68
2023/01/27 05:13:46;;;;;;;;;14.67;9.33;;;;;-1.62;89.70;98600.13;4948899;28;102100;-69
2023/01/27 05:16:17;;;;;;;;;21.00;17.67;;;;;-1.65;88.92;98610.16;4965874;27;103660;-68
2023/01/27 05:18:47;;;;;;;;;22.33;21.00;;;;;-1.73;88.29;98597.53;4969682;28;102156;-68
2023/01/27 05:21:17;;;;;;;;;24.00;19.33;;;;;-1.70;88.57;98604.38;4967374;28;102032;-68
2023/01/27 05:23:44;;;;;;;;;18.67;15.00;;;;;-1.90;88.69;98561.81;4964999;28;102201;-68
2023/01/27 05:26:12;;;;;;;;;3.33;2.00;;;;;-1.55;89.33;98614.59;4967000;28;104156;-69
2023/01/27 05:28:42;;;;;;;;;13.33;11.67;;;;;-1.52;88.36;98608.19;4943850;28;104306;-68
2023/01/27 05:31:12;;;;;;;;;16.33;12.00;;;;;-1.52;86.45;98608.19;4962592;28;101972;-69
2023/01/27 05:33:40;;;;;;;;;12.00;11.00;;;;;-1.56;86.52;98599.66;4972102;28;102342;-69
2023/01/27 05:36:11;;;;;;;;;16.33;11.00;;;;;-1.82;86.14;98551.41;4970407;28;104652;-68
2023/01/27 05:38:39;;;;;;;;;34.67;21.00;;;;;-1.61;86.38;98608.94;4957182;28;102406;-69
2023/01/27 05:41:08;;;;;;;;;22.67;15.00;;;;;-1.58;86.34;98611.34;4970314;28;102980;-69
2023/01/27 05:43:37;;;;;;;;;11.67;11.00;;;;;-1.52;86.14;98616.13;4968595;28;102125;-69
2023/01/27 05:46:05;;;;;;;;;29.67;21.00;;;;;-1.63;86.99;98618.84;4948833;28;104005;-69
2023/01/27 05:48:34;;;;;;;;;22.67;19.00;;;;;-1.55;86.32;98616.41;4962268;28;102426;-69
2023/01/27 05:51:02;;;;;;;;;21.00;18.67;;;;;-1.62;86.04;98615.22;4970742;28;102314;-70
2023/01/27 05:53:29;;;;;;;;;14.67;12.00;;;;;-1.60;85.55;98619.41;4974267;28;103028;-70
2023/01/27 05:55:56;;;;;;;;;28.67;18.00;;;;;-1.79;87.22;98590.06;4969135;28;108210;-70
2023/01/27 05:58:24;;;;;;;;;27.33;20.00;;;;;-1.74;85.69;98602.94;4960679;28;102686;-70
2023/01/27 06:00:52;;;;;;;;;25.00;24.00;;;;;-1.62;86.63;98628.47;4970896;28;101800;-69
2023/01/27 06:03:19;;;;;;;;;23.00;18.33;;;;;-1.58;86.07;98622.81;4970130;28;106003;-70
2023/01/27 06:05:54;;;;;;;;;21.67;17.67;;;;;-1.56;86.33;98625.31;4957838;28;103802;-69
2023/01/27 06:08:25;;;;;;;;;20.67;15.00;;;;;-1.82;85.00;98592.97;4966978;28;102415;-69
2023/01/27 06:10:53;;;;;;;;;24.00;19.67;;;;;-1.63;84.62;98640.03;4961981;28;102243;-69
2023/01/27 06:13:22;;;;;;;;;25.33;21.67;;;;;-1.60;85.21;98639.78;4973420;28;102414;-69
2023/01/27 06:15:49;;;;;;;;;18.00;16.67;;;;;-1.64;85.10;98636.53;4969399;28;104031;-69
2023/01/27 06:18:18;;;;;;;;;25.00;18.33;;;;;-1.61;84.24;98632.78;4961669;28;102433;-69
2023/01/27 06:20:45;;;;;;;;;24.00;17.33;;;;;-1.64;85.69;98633.06;4964514;28;102373;-69
2023/01/27 06:23:15;;;;;;;;;18.67;14.33;;;;;-1.58;86.23;98635.22;4969550;28;102375;-69
2023/01/27 06:25:47;;;;;;;;;22.00;12.67;;;;;-1.60;84.94;98640.63;4963529;28;104132;-69
2023/01/27 06:28:15;;;;;;;;;27.00;18.67;;;;;-1.58;83.05;98644.00;4961230;28;102677;-69
2023/01/27 06:30:55;;;;;;;;;19.33;14.00;;;;;-1.57;85.18;98647.47;4963288;28;103428;-69
2023/01/27 06:33:22;;;;;;;;;24.00;15.67;;;;;-1.85;85.10;98609.94;4963715;28;102462;-69
2023/01/27 06:35:49;;;;;;;;;19.67;13.67;;;;;-1.61;83.19;98643.41;4962187;28;104118;-69
2023/01/27 06:38:16;;;;;;;;;10.33;8.00;;;;;-1.80;84.57;98607.78;4779970;28;5001877;-69
2023/01/27 06:40:43;;;;;;;;;11.00;11.00;;;;;-1.51;85.56;98647.00;4953522;28;102918;-69
2023/01/27 06:43:12;;;;;;;;;30.33;23.00;;;;;-1.62;83.46;98652.34;4969611;28;102576;-68
2023/01/27 06:45:39;;;;;;;;;20.67;20.00;;;;;-1.58;84.15;98657.25;4966234;28;104220;-69
2023/01/27 06:48:07;;;;;;;;;23.67;17.00;;;;;-1.56;83.34;98649.16;4955819;28;102383;-70
2023/01/27 06:50:35;;;;;;;;;25.33;17.00;;;;;-1.62;83.48;98647.84;4962969;28;109453;-70
2023/01/27 06:53:05;;;;;;;;;19.33;14.00;;;;;-1.59;82.29;98668.84;4960223;28;102131;-70
2023/01/27 06:55:33;;;;;;;;;20.67;18.00;;;;;-1.60;83.81;98666.28;4964077;28;104332;-70
2023/01/27 06:58:03;;;;;;;;;25.67;18.00;;;;;-1.62;83.51;98658.44;4969475;28;102356;-70
2023/01/27 07:00:30;;;;;;;;;22.00;20.33;;;;;-1.85;82.67;98625.84;4964583;28;101931;-70
2023/01/27 07:02:57;;;;;;;;;24.67;18.67;;;;;-1.54;83.04;98671.13;4969231;28;102338;-69
2023/01/27 07:05:24;;;;;;;;;23.00;17.00;;;;;-1.51;83.98;98669.03;4948020;28;105036;-69
2023/01/27 07:07:51;;;;;;;;;26.00;18.67;;;;;-1.53;83.77;98667.50;4959339;28;102503;-69
2023/01/27 07:10:18;;;;;;;;;24.67;20.00;;;;;-1.47;82.70;98672.28;4968650;28;101994;-69
2023/01/27 07:12:45;;;;;;;;;31.67;26.33;;;;;-1.56;82.73;98673.03;4932040;28;102164;-69
2023/01/27 07:15:12;;;;;;;;;40.33;30.00;;;;;-1.62;84.45;98671.69;4960051;27;104187;-69
2023/01/27 07:17:39;;;;;;;;;27.00;24.33;;;;;-1.57;83.38;98671.34;4964000;28;102206;-69
2023/01/27 07:20:10;;;;;;;;;29.67;22.33;;;;;-1.52;82.46;98677.13;4952359;28;102033;-71
2023/01/27 07:22:38;;;;;;;;;37.33;25.67;;;;;-1.49;83.71;98668.94;4970507;28;101973;-69
2023/01/27 07:25:05;;;;;;;;;25.33;18.00;;;;;-1.37;83.06;98670.59;4957994;28;104073;-69
2023/01/27 07:27:32;;;;;;;;;28.33;22.00;;;;;-1.32;81.77;98673.72;4962717;28;102169;-71
2023/01/27 07:29:59;;;;;;;;;32.67;21.33;;;;;-1.31;81.37;98672.75;4954372;28;102026;-69
2023/01/27 07:32:26;;;;;;;;;29.67;22.00;;;;;-1.29;82.41;98676.09;4959694;28;102965;-69
2023/01/27 07:34:54;;;;;;;;;27.33;21.67;;;;;-1.24;82.14;98673.91;4966935;28;104000;-69
2023/01/27 07:37:21;;;;;;;;;32.00;27.00;;;;;-1.34;81.26;98672.97;4956372;28;102352;-70
2023/01/27 07:39:48;;;;;;;;;38.00;29.00;;;;;-1.23;81.50;98675.59;4958868;28;102208;-71
2023/01/27 07:42:15;;;;;;;;;30.00;24.00;;;;;-1.29;81.98;98660.19;4961316;28;102311;-70
2023/01/27 07:44:42;;;;;;;;;25.33;22.33;;;;;-1.17;81.62;98668.97;4964293;28;104049;-70
2023/01/27 07:47:09;;;;;;;;;25.67;23.33;;;;;-1.21;81.62;98663.03;4956880;28;102466;-70
2023/01/27 07:49:37;;;;;;;;;23.33;19.00;;;;;-1.15;80.36;98662.56;4948545;28;102100;-70
